• Join FlightAware (Why Join?)
  • Login
  • US Flag 
09:14AM EDT


 

Airport Tracker/Info


-or-


 

Live Flight TrackerFlight Track Log ✈ AAL466 ✈ 28-Apr-2012 ✈ KIAH - KMIA

Flight Track Log - Related Links

Times and Time Zones

All times are in EDT time to prevent confusion due to time zone crossing. See the AAL466 flight status page for this flight to view local times or setup timezone preferences in your user account.

Time Position Orientation Groundspeed Altitude Reporting Facility
EDT Latitude Longitude Course Direction KTS MPH feet Rate Location/Type
07:06AM 29.9566 -95.3384 142° Southeast 172 198 700  Level FlightAware ADS-B
07:06AM 29.9538 -95.3359 134° Southeast 165 190 1,000 3,000 Climbing FlightAware ADS-B
07:07AM 29.9489 -95.3300 130° Southeast 162 186 1,400 2,400 Climbing FlightAware ADS-B
07:07AM 29.9463 -95.3264 128° Southeast 159 183 1,600 1,440 Climbing FlightAware ADS-B
07:07AM 29.9369 -95.3126 130° Southeast 170 196 2,000 1,020 Climbing FlightAware ADS-B
07:07AM 29.9285 -95.3010 128° Southeast 194 223 2,200 960 Climbing FlightAware ADS-B
07:08AM 29.9192 -95.2872 128° Southeast 213 245 2,500 1,320 Climbing FlightAware ADS-B
07:08AM 29.9070 -95.2691 128° Southeast 231 266 3,000 1,860 Climbing FlightAware ADS-B
07:08AM 29.8960 -95.2530 125° Southeast 239 275 3,600 2,160 Climbing FlightAware ADS-B
07:08AM 29.8920 -95.2465 122° Southeast 242 278 3,800 1,800 Climbing FlightAware ADS-B
07:08AM 29.8901 -95.2430 117° Southeast 244 281 3,900 2,520 Climbing FlightAware ADS-B
07:08AM 29.8882 -95.2386 114° Southeast 246 283 4,100 3,720 Climbing FlightAware ADS-B
07:08AM 29.8859 -95.2326 106° East 247 284 4,400 2,700 Climbing FlightAware ADS-B
07:09AM 29.8840 -95.2251 102° East 250 288 4,600 2,640 Climbing FlightAware ADS-B
07:09AM 29.8832 -95.2209 100° East 253 291 4,800 1,740 Climbing FlightAware ADS-B
07:09AM 29.8803 -95.2026 101° East 265 305 5,100 1,440 Climbing FlightAware ADS-B
07:09AM 29.8765 -95.1804 101° East 277 319 5,500 1,800 Climbing FlightAware ADS-B
07:09AM 29.8727 -95.1583 101° East 282 325 6,000 1,920 Climbing FlightAware ADS-B
07:10AM 29.8687 -95.1356 102° East 285 328 6,500 2,220 Climbing FlightAware ADS-B
07:10AM 29.8650 -95.1152 103° East 284 327 7,100 2,400 Climbing FlightAware ADS-B
07:10AM 29.8617 -95.0986 103° East 286 329 7,500 2,040 Climbing FlightAware ADS-B
07:10AM 29.8585 -95.0822 103° East 287 330 7,900 2,040 Climbing FlightAware ADS-B
07:10AM 29.8548 -95.0631 102° East 290 334 8,300 2,340 Climbing FlightAware ADS-B
07:11AM 29.8506 -95.0397 102° East 291 335 9,000 2,400 Climbing FlightAware ADS-B
07:11AM 29.8468 -95.0185 101° East 294 338 9,500 1,980 Climbing FlightAware ADS-B
07:11AM 29.8392 -94.9752 103° East 301 346 10,400 1,620 Climbing FlightAware ADS-B
07:12AM 29.8289 -94.9245 102° East 325 374 11,100 1,740 Climbing FlightAware ADS-B
07:12AM 29.8192 -94.8723 102° East 335 386 12,200 2,100 Climbing FlightAware ADS-B
07:13AM 29.8106 -94.8244 103° East 349 402 13,100 1,920 Climbing FlightAware ADS-B
07:13AM 29.8081 -94.8115 102° East 352 405 13,300 1,680 Climbing FlightAware ADS-B
07:13AM 29.8063 -94.8015 100° East 354 407 13,500 2,280 Climbing FlightAware ADS-B
07:13AM 29.7979 -94.7484 102° East 360 414 14,600 2,160 Climbing FlightAware ADS-B
07:14AM 29.7875 -94.6896 102° East 378 435 15,600 2,400 Climbing FlightAware ADS-B
07:14AM 29.7766 -94.6296 103° East 383 441 17,000 2,400 Climbing FlightAware ADS-B
07:15AM 29.7643 -94.5690 103° East 391 450 18,100 2,220 Climbing FlightAware ADS-B
07:16AM 29.7523 -94.5074 102° East 397 457 19,300 2,160 Climbing FlightAware ADS-B
07:16AM 29.7405 -94.4440 102° East 407 468 20,300 1,980 Climbing FlightAware ADS-B
07:17AM 29.7286 -94.3795 102° East 416 479 21,300 1,980 Climbing FlightAware ADS-B
07:17AM 29.7165 -94.3139 102° East 422 486 22,300 1,860 Climbing FlightAware ADS-B
07:18AM 29.7041 -94.2470 102° East 430 495 23,200 1,620 Climbing FlightAware ADS-B
07:18AM 29.6914 -94.1792 102° East 439 505 24,000 1,560 Climbing FlightAware ADS-B
07:19AM 29.6781 -94.1085 102° East 447 514 24,800 1,620 Climbing FlightAware ADS-B
07:19AM 29.6646 -94.0367 102° East 453 521 25,700 1,620 Climbing FlightAware ADS-B
07:20AM 29.6510 -93.9649 103° East 458 527 26,500 1,500 Climbing FlightAware ADS-B
07:20AM 29.6371 -93.8931 102° East 462 532 27,200 1,440 Climbing FlightAware ADS-B
07:21AM 29.6233 -93.8205 102° East 465 535 28,000 1,320 Climbing FlightAware ADS-B
07:21AM 29.6093 -93.7467 102° East 472 543 28,600 1,260 Climbing FlightAware ADS-B
07:22AM 29.5952 -93.6725 102° East 476 548 29,300 1,320 Climbing FlightAware ADS-B
07:22AM 29.5809 -93.5977 102° East 477 549 30,000 1,260 Climbing FlightAware ADS-B
07:23AM 29.5664 -93.5225 102° East 481 554 30,600 1,080 Climbing FlightAware ADS-B
07:23AM 29.5517 -93.4463 102° East 486 559 31,100 1,200 Climbing FlightAware ADS-B
07:24AM 29.5371 -93.3702 103° East 487 560 31,800 1,320 Climbing FlightAware ADS-B
07:24AM 29.5221 -93.2930 103° East 486 559 32,500 1,320 Climbing FlightAware ADS-B
07:25AM 29.5074 -93.2174 103° East 485 558 33,200 1,260 Climbing FlightAware ADS-B
07:25AM 29.4924 -93.1414 103° East 486 559 33,800 1,020 Climbing FlightAware ADS-B
07:26AM 29.4769 -93.0634 103° East 488 562 34,300 960 Climbing FlightAware ADS-B
07:26AM 29.4617 -92.9867 103° East 490 564 34,800 1,080 Climbing FlightAware ADS-B
07:27AM 29.4465 -92.9095 103° East 490 564 35,400 1,260 Climbing FlightAware ADS-B
07:27AM 29.4315 -92.8335 103° East 485 558 36,100 1,140 Climbing FlightAware ADS-B
07:28AM 29.4164 -92.7579 103° East 482 555 36,600 900 Climbing FlightAware ADS-B
07:28AM 29.4013 -92.6824 103° East 479 551 37,000 240 Climbing FlightAware ADS-B
07:29AM 29.3692 -92.5229 103° East 477 549 37,000  Level FlightAware ADS-B
07:30AM 29.3541 -92.4468 102° East 477 549 37,000  Level FlightAware ADS-B
07:30AM 29.3386 -92.3665 103° East 477 549 37,000  Level FlightAware ADS-B
07:31AM 29.3236 -92.2918 104° East 477 549 37,000 -120 Level FlightAware ADS-B
07:32AM 29.3053 -92.2092 103° East 471 542 36,900 -60 Descending Houston Center
07:33AM 29.2747 -92.0589 105° East 471 542 36,900  Level Houston Center
07:34AM 29.2394 -91.9133 103° East 471 542 37,000  Climbing Houston Center
07:35AM 29.2103 -91.7681 102° East 471 542 37,000  Level Houston Center
07:36AM 29.1811 -91.6086 103° East 471 542 37,000  Level Houston Center
07:37AM 29.1519 -91.4611 105° East 466 536 37,000  Level Houston Center
07:38AM 29.1181 -91.3139 103° East 472 543 37,000  Level Houston Center
07:39AM 29.0883 -91.1714 104° East 467 537 37,000 -60 Level Houston Center
07:40AM 29.0564 -91.0242 104° East 467 537 36,900 -60 Descending Houston Center
07:41AM 29.0244 -90.8817 103° East 467 537 36,900  Level Houston Center
07:42AM 28.9942 -90.7369 104° East 467 537 37,000  Climbing Houston Center
07:43AM 28.9619 -90.5900 104° East 467 537 37,000  Level Houston Center
07:44AM 28.9314 -90.4456 104° East 474 545 37,000  Level Houston Center
07:45AM 28.8986 -90.2989 104° East 474 545 37,000  Level Houston Center
07:46AM 28.8658 -90.1544 103° East 474 545 37,000  Level Houston Center
07:47AM 28.8350 -90.0078 105° East 468 539 37,000  Level Houston Center
07:48AM 28.8017 -89.8614 104° East 473 544 37,000  Level Houston Center
07:49AM 28.7706 -89.7150 105° East 473 544 37,000  Level Houston Center
07:50AM 28.7369 -89.5711 105° East 473 544 37,000  Level Houston Center
07:51AM 28.7033 -89.4250 105° East 473 544 37,000 -60 Level Houston Center
07:52AM 28.6697 -89.2789 105° East 478 550 36,900  Descending Houston Center
07:53AM 28.6358 -89.1353 104° East 473 544 37,000  Climbing Houston Center
07:54AM 28.6036 -88.9892 106° East 473 544 36,900  Descending Houston Center
07:55AM 28.5675 -88.8458 103° East 473 544 37,000  Climbing Houston Center
07:56AM 28.5372 -88.6975 105° East 473 544 37,000  Level Houston Center
07:57AM 28.4978 -88.5322 105° East 465 535 37,000  Level Jacksonville Center
07:58AM 28.4625 -88.3817 105° East 470 541 37,000  Level Jacksonville Center
07:59AM 28.4289 -88.2358 105° East 475 547 37,000  Level Jacksonville Center
08:00AM 28.3936 -88.0853 108° East 481 554 37,000  Level Jacksonville Center
08:01AM 28.3531 -87.9467 109° East 481 554 37,000  Level Jacksonville Center
08:02AM 28.3125 -87.8103 113° Southeast 475 547 37,000  Level Jacksonville Center
08:03AM 28.2594 -87.6664 109° East 470 541 37,000  Level Jacksonville Center
08:04AM 28.2206 -87.5350 111° Southeast 465 535 37,000 -60 Level Jacksonville Center
08:05AM 28.1733 -87.3964 111° Southeast 470 541 36,900  Descending Jacksonville Center
08:06AM 28.1261 -87.2578 111° Southeast 465 535 37,000  Climbing Jacksonville Center
08:07AM 28.0806 -87.1217 111° Southeast 465 535 37,000 -60 Level Jacksonville Center
08:08AM 28.0328 -86.9833 110° East 457 526 36,900  Descending Jacksonville Center
08:09AM 27.9931 -86.8572 111° Southeast 452 520 37,000  Climbing Jacksonville Center
08:10AM 27.9411 -86.7072 112° Southeast 464 534 37,000  Level Jacksonville Center
08:11AM 27.8931 -86.5694 111° Southeast 467 537 37,000  Level Jacksonville Center
08:12AM 27.8486 -86.4408 111° Southeast 464 534 37,000  Level Jacksonville Center
08:13AM 27.8022 -86.3056 111° Southeast 464 534 37,000 -60 Level Jacksonville Center
08:14AM 27.7558 -86.1658 112° Southeast 459 528 36,900  Descending Jacksonville Center
08:15AM 27.7111 -86.0378 111° Southeast 453 521 37,000  Climbing Jacksonville Center
08:16AM 27.6339 -85.8103 113° Southeast 460 529 37,000 -60 Level Miami Center
08:17AM 27.5892 -85.6900 112° Southeast 451 519 36,900  Descending Miami Center
08:18AM 27.5411 -85.5578 111° Southeast 451 519 37,000  Climbing Miami Center
08:19AM 27.4967 -85.4281 114° Southeast 451 519 36,900  Descending Miami Center
08:20AM 27.4442 -85.2958 105° East 451 519 37,000  Climbing Miami Center
08:21AM 27.4122 -85.1650 115° Southeast 451 519 37,000  Level Miami Center
08:22AM 27.3572 -85.0303 113° Southeast 451 519 37,000  Level Miami Center
08:23AM 27.3083 -84.8986 110° East 451 519 37,000 -60 Level Miami Center
08:24AM 27.2656 -84.7672 114° Southeast 446 513 36,900  Descending Miami Center
08:25AM 27.2122 -84.6353 110° East 451 519 37,000  Climbing Miami Center
08:26AM 27.1692 -84.5042 113° Southeast 451 519 37,000  Level Miami Center
08:27AM 27.1200 -84.3728 112° Southeast 445 512 37,000  Level Miami Center
08:28AM 27.0725 -84.2392 112° Southeast 450 518 37,000  Level Miami Center
08:29AM 27.0269 -84.1106 112° Southeast 450 518 37,000 -60 Level Miami Center
08:30AM 26.9792 -83.9797 112° Southeast 450 518 36,900 -60 Descending Miami Center
08:31AM 26.9333 -83.8511 113° Southeast 445 512 36,900  Level Miami Center
08:32AM 26.8833 -83.7203 112° Southeast 445 512 36,900  Level Miami Center
08:33AM 26.8372 -83.5919 112° Southeast 445 512 36,900  Level Miami Center
08:34AM 26.7908 -83.4614 114° Southeast 445 512 37,000  Climbing Miami Center
08:35AM 26.7383 -83.3308 111° Southeast 445 512 37,000 -60 Level Miami Center
08:36AM 26.6939 -83.2028 114° Southeast 445 512 36,900 -60 Descending Miami Center
08:37AM 26.6431 -83.0747 111° Southeast 445 512 36,900  Level Miami Center
08:38AM 26.5967 -82.9422 114° Southeast 445 512 36,900 -540 Level Miami Center
08:39AM 26.5456 -82.8144 113° Southeast 445 512 35,900 -960 Descending Miami Center
08:40AM 26.4964 -82.6867 112° Southeast 450 518 35,000 -960 Descending Miami Center
08:41AM 26.4475 -82.5544 112° Southeast 450 518 34,000 -1,020 Descending Miami Center
08:42AM 26.3983 -82.4200 114° Southeast 450 518 33,000 -960 Descending Miami Center
08:43AM 26.3469 -82.2900 113° Southeast 456 525 32,100 -1,320 Descending Miami Center
08:44AM 26.2975 -82.1606 113° Southeast 456 525 30,400 -1,980 Descending Miami Center
08:45AM 26.2458 -82.0239 113° Southeast 461 531 28,200 -2,400 Descending Miami Center
08:46AM 26.1964 -81.8922 113° Southeast 461 531 25,600 -2,700 Descending Miami Center
08:47AM 26.1483 -81.7675 107° East 448 516 22,800 -2,640 Descending Miami Center
08:48AM 26.1128 -81.6411 110° East 437 503 20,400 -2,520 Descending Miami Center
08:49AM 26.0728 -81.5217 110° East 426 490 17,800 -2,400 Descending Miami Center
08:50AM 26.0347 -81.4069 110° East 412 474 15,600 -1,860 Descending Miami Center
08:51AM 25.9983 -81.2969 109° East 393 452 14,100 -1,860 Descending Miami Center
08:52AM 25.9661 -81.1942 112° Southeast 372 428 11,900 -2,100 Descending Miami Center
08:53AM 25.9253 -81.0842 96° East 346 398 10,000 -1,080 Descending Miami Center
08:54AM 25.9172 -81.0006 96° East 331 381 9,800 -600 Descending Miami Center
08:55AM 25.9092 -80.9150 95° East 296 341 8,900 -1,020 Descending Miami Center
08:56AM 25.9031 -80.8339 88° East 263 303 7,800 -1,380 Descending Miami Center
08:57AM 25.9050 -80.7672 84° East 237 273 6,200 -1,440 Descending Miami Center
08:58AM 25.9108 -80.7025 90° East 211 243 5,000 -1,320 Descending Miami Center
09:00AM 25.9106 -80.6356 78° East 194 223 3,300 -1,080 Descending Miami Center
09:00AM 25.9200 -80.5853 97° East 194 223 2,900 -240 Descending Miami Center
09:01AM 25.9133 -80.5250 97° East 194 223 2,900  Level Miami Center